sensor_id;sensor_type;location;lat;lon;timestamp;P1;durP1;ratioP1;P2;durP2;ratioP2
34836;SDS011;21053;50.848;4.652;2022-09-29T00:01:56;9.30;;;5.30;;
34836;SDS011;21053;50.848;4.652;2022-09-29T00:04:23;21.27;;;6.55;;
34836;SDS011;21053;50.848;4.652;2022-09-29T00:06:49;10.93;;;5.70;;
34836;SDS011;21053;50.848;4.652;2022-09-29T00:09:18;8.93;;;5.18;;
34836;SDS011;21053;50.848;4.652;2022-09-29T00:11:52;9.00;;;5.45;;
34836;SDS011;21053;50.848;4.652;2022-09-29T00:14:22;12.45;;;5.40;;
34836;SDS011;21053;50.848;4.652;2022-09-29T00:16:51;12.65;;;5.50;;
34836;SDS011;21053;50.848;4.652;2022-09-29T00:19:18;12.45;;;6.32;;
34836;SDS011;21053;50.848;4.652;2022-09-29T00:21:45;13.35;;;6.07;;
34836;SDS011;21053;50.848;4.652;2022-09-29T00:24:11;10.43;;;6.55;;
34836;SDS011;21053;50.848;4.652;2022-09-29T00:26:40;9.20;;;5.60;;
34836;SDS011;21053;50.848;4.652;2022-09-29T00:29:08;8.38;;;5.80;;
34836;SDS011;21053;50.848;4.652;2022-09-29T00:31:37;8.57;;;5.18;;
34836;SDS011;21053;50.848;4.652;2022-09-29T00:34:06;9.85;;;5.85;;
34836;SDS011;21053;50.848;4.652;2022-09-29T00:36:35;14.52;;;5.35;;
34836;SDS011;21053;50.848;4.652;2022-09-29T00:39:01;10.18;;;5.47;;
34836;SDS011;21053;50.848;4.652;2022-09-29T00:41:35;21.48;;;6.20;;
34836;SDS011;21053;50.848;4.652;2022-09-29T00:54:46;9.25;;;5.65;;
34836;SDS011;21053;50.848;4.652;2022-09-29T00:59:50;15.90;;;5.85;;
34836;SDS011;21053;50.848;4.652;2022-09-29T01:02:24;13.65;;;5.93;;
34836;SDS011;21053;50.848;4.652;2022-09-29T01:04:56;9.65;;;5.68;;
34836;SDS011;21053;50.848;4.652;2022-09-29T01:07:24;10.90;;;5.82;;
34836;SDS011;21053;50.848;4.652;2022-09-29T01:09:54;11.63;;;6.35;;
34836;SDS011;21053;50.848;4.652;2022-09-29T01:15:06;11.50;;;5.75;;
34836;SDS011;21053;50.848;4.652;2022-09-29T01:20:17;17.05;;;6.13;;
34836;SDS011;21053;50.848;4.652;2022-09-29T01:39:47;13.02;;;5.07;;
34836;SDS011;21053;50.848;4.652;2022-09-29T01:42:30;10.10;;;5.05;;
34836;SDS011;21053;50.848;4.652;2022-09-29T01:45:14;8.13;;;5.22;;
34836;SDS011;21053;50.848;4.652;2022-09-29T01:52:56;9.80;;;5.22;;
34836;SDS011;21053;50.848;4.652;2022-09-29T01:55:29;12.73;;;5.15;;
34836;SDS011;21053;50.848;4.652;2022-09-29T02:00:31;11.90;;;5.65;;
34836;SDS011;21053;50.848;4.652;2022-09-29T02:03:11;8.40;;;5.53;;
34836;SDS011;21053;50.848;4.652;2022-09-29T02:06:06;13.10;;;5.90;;
34836;SDS011;21053;50.848;4.652;2022-09-29T02:08:42;10.23;;;5.55;;
34836;SDS011;21053;50.848;4.652;2022-09-29T02:13:49;9.65;;;5.40;;
34836;SDS011;21053;50.848;4.652;2022-09-29T02:18:53;14.07;;;5.57;;
34836;SDS011;21053;50.848;4.652;2022-09-29T02:21:30;10.77;;;5.22;;
34836;SDS011;21053;50.848;4.652;2022-09-29T02:26:29;11.10;;;4.60;;
34836;SDS011;21053;50.848;4.652;2022-09-29T02:28:59;9.25;;;5.30;;
34836;SDS011;21053;50.848;4.652;2022-09-29T02:31:28;9.88;;;5.32;;
34836;SDS011;21053;50.848;4.652;2022-09-29T02:33:56;26.70;;;5.47;;
34836;SDS011;21053;50.848;4.652;2022-09-29T02:50:38;10.35;;;5.18;;
34836;SDS011;21053;50.848;4.652;2022-09-29T03:01:39;11.95;;;5.28;;
34836;SDS011;21053;50.848;4.652;2022-09-29T03:04:18;10.90;;;5.80;;
34836;SDS011;21053;50.848;4.652;2022-09-29T03:06:46;15.15;;;6.03;;
34836;SDS011;21053;50.848;4.652;2022-09-29T03:14:11;9.73;;;5.07;;
34836;SDS011;21053;50.848;4.652;2022-09-29T03:16:38;8.82;;;5.57;;
34836;SDS011;21053;50.848;4.652;2022-09-29T03:19:06;14.45;;;5.30;;
34836;SDS011;21053;50.848;4.652;2022-09-29T03:21:38;14.18;;;5.40;;
34836;SDS011;21053;50.848;4.652;2022-09-29T03:24:12;6.97;;;5.20;;
34836;SDS011;21053;50.848;4.652;2022-09-29T03:26:38;8.77;;;5.47;;
34836;SDS011;21053;50.848;4.652;2022-09-29T03:29:04;7.47;;;5.50;;
34836;SDS011;21053;50.848;4.652;2022-09-29T03:31:33;10.68;;;5.28;;
34836;SDS011;21053;50.848;4.652;2022-09-29T03:34:00;9.57;;;5.32;;
34836;SDS011;21053;50.848;4.652;2022-09-29T03:36:26;11.77;;;5.10;;
34836;SDS011;21053;50.848;4.652;2022-09-29T03:38:52;16.52;;;6.10;;
34836;SDS011;21053;50.848;4.652;2022-09-29T03:41:25;18.33;;;5.55;;
34836;SDS011;21053;50.848;4.652;2022-09-29T03:43:51;6.78;;;4.45;;
34836;SDS011;21053;50.848;4.652;2022-09-29T03:46:19;7.60;;;4.38;;
34836;SDS011;21053;50.848;4.652;2022-09-29T03:48:48;10.32;;;4.93;;
34836;SDS011;21053;50.848;4.652;2022-09-29T03:51:15;8.40;;;5.20;;
34836;SDS011;21053;50.848;4.652;2022-09-29T03:53:41;6.78;;;4.60;;
34836;SDS011;21053;50.848;4.652;2022-09-29T03:56:07;9.55;;;4.65;;
34836;SDS011;21053;50.848;4.652;2022-09-29T03:58:34;8.35;;;5.22;;
34836;SDS011;21053;50.848;4.652;2022-09-29T04:01:02;7.45;;;4.72;;
34836;SDS011;21053;50.848;4.652;2022-09-29T04:03:28;10.10;;;4.68;;
34836;SDS011;21053;50.848;4.652;2022-09-29T04:05:57;7.47;;;4.75;;
34836;SDS011;21053;50.848;4.652;2022-09-29T04:08:24;6.88;;;4.93;;
34836;SDS011;21053;50.848;4.652;2022-09-29T04:10:52;11.98;;;6.25;;
34836;SDS011;21053;50.848;4.652;2022-09-29T04:13:20;10.00;;;5.45;;
34836;SDS011;21053;50.848;4.652;2022-09-29T04:15:56;14.23;;;4.97;;
34836;SDS011;21053;50.848;4.652;2022-09-29T04:18:26;8.95;;;5.25;;
34836;SDS011;21053;50.848;4.652;2022-09-29T04:23:27;16.60;;;4.95;;
34836;SDS011;21053;50.848;4.652;2022-09-29T04:25:56;8.35;;;5.45;;
34836;SDS011;21053;50.848;4.652;2022-09-29T04:28:25;11.35;;;5.55;;
34836;SDS011;21053;50.848;4.652;2022-09-29T04:33:22;10.45;;;5.30;;
34836;SDS011;21053;50.848;4.652;2022-09-29T04:35:49;9.93;;;5.93;;
34836;SDS011;21053;50.848;4.652;2022-09-29T04:38:18;11.10;;;5.03;;
34836;SDS011;21053;50.848;4.652;2022-09-29T04:40:47;16.60;;;4.85;;
34836;SDS011;21053;50.848;4.652;2022-09-29T04:43:14;13.25;;;4.85;;
34836;SDS011;21053;50.848;4.652;2022-09-29T04:53:10;11.43;;;4.85;;
34836;SDS011;21053;50.848;4.652;2022-09-29T04:55:36;11.85;;;5.40;;
34836;SDS011;21053;50.848;4.652;2022-09-29T04:58:02;7.35;;;4.65;;
34836;SDS011;21053;50.848;4.652;2022-09-29T05:00:28;8.90;;;4.75;;
34836;SDS011;21053;50.848;4.652;2022-09-29T05:02:59;8.60;;;5.43;;
34836;SDS011;21053;50.848;4.652;2022-09-29T05:07:56;8.27;;;5.35;;
34836;SDS011;21053;50.848;4.652;2022-09-29T05:10:31;11.32;;;5.63;;
34836;SDS011;21053;50.848;4.652;2022-09-29T05:13:00;10.90;;;5.20;;
34836;SDS011;21053;50.848;4.652;2022-09-29T05:15:29;9.60;;;5.07;;
34836;SDS011;21053;50.848;4.652;2022-09-29T05:20:25;8.85;;;5.25;;
34836;SDS011;21053;50.848;4.652;2022-09-29T05:22:53;10.15;;;5.38;;
34836;SDS011;21053;50.848;4.652;2022-09-29T05:25:22;15.57;;;5.57;;
34836;SDS011;21053;50.848;4.652;2022-09-29T05:30:18;11.73;;;5.78;;
34836;SDS011;21053;50.848;4.652;2022-09-29T05:35:12;12.30;;;5.78;;
34836;SDS011;21053;50.848;4.652;2022-09-29T05:37:41;11.60;;;5.60;;
34836;SDS011;21053;50.848;4.652;2022-09-29T05:42:39;12.80;;;5.35;;
34836;SDS011;21053;50.848;4.652;2022-09-29T05:45:08;11.52;;;5.32;;
34836;SDS011;21053;50.848;4.652;2022-09-29T05:50:11;16.45;;;5.30;;
34836;SDS011;21053;50.848;4.652;2022-09-29T05:52:38;15.77;;;5.25;;
34836;SDS011;21053;50.848;4.652;2022-09-29T05:57:39;17.73;;;6.80;;
34836;SDS011;21053;50.848;4.652;2022-09-29T06:00:11;13.55;;;7.78;;
34836;SDS011;21053;50.848;4.652;2022-09-29T06:02:38;14.75;;;7.43;;
34836;SDS011;21053;50.848;4.652;2022-09-29T06:05:04;14.07;;;6.30;;
34836;SDS011;21053;50.848;4.652;2022-09-29T06:07:31;15.95;;;7.28;;
34836;SDS011;21053;50.848;4.652;2022-09-29T06:09:59;19.67;;;8.60;;
34836;SDS011;21053;50.848;4.652;2022-09-29T06:12:26;11.60;;;5.45;;
34836;SDS011;21053;50.848;4.652;2022-09-29T06:14:55;11.98;;;5.82;;
34836;SDS011;21053;50.848;4.652;2022-09-29T06:17:20;10.85;;;5.95;;
34836;SDS011;21053;50.848;4.652;2022-09-29T06:19:47;10.45;;;5.97;;
34836;SDS011;21053;50.848;4.652;2022-09-29T06:22:23;16.95;;;7.50;;
34836;SDS011;21053;50.848;4.652;2022-09-29T06:27:26;19.90;;;6.78;;
34836;SDS011;21053;50.848;4.652;2022-09-29T06:29:59;15.98;;;6.18;;
34836;SDS011;21053;50.848;4.652;2022-09-29T06:32:26;11.80;;;5.88;;
34836;SDS011;21053;50.848;4.652;2022-09-29T06:34:55;11.13;;;5.45;;
34836;SDS011;21053;50.848;4.652;2022-09-29T06:37:42;9.77;;;5.07;;
34836;SDS011;21053;50.848;4.652;2022-09-29T06:42:39;14.30;;;6.53;;
34836;SDS011;21053;50.848;4.652;2022-09-29T06:45:05;13.98;;;6.82;;
34836;SDS011;21053;50.848;4.652;2022-09-29T06:47:37;13.45;;;6.35;;
34836;SDS011;21053;50.848;4.652;2022-09-29T06:50:03;13.38;;;6.20;;
34836;SDS011;21053;50.848;4.652;2022-09-29T06:52:35;17.60;;;6.68;;
34836;SDS011;21053;50.848;4.652;2022-09-29T06:55:03;14.30;;;7.13;;
34836;SDS011;21053;50.848;4.652;2022-09-29T06:57:30;12.60;;;7.00;;
34836;SDS011;21053;50.848;4.652;2022-09-29T06:59:57;16.67;;;6.75;;
34836;SDS011;21053;50.848;4.652;2022-09-29T07:02:24;16.65;;;6.75;;
34836;SDS011;21053;50.848;4.652;2022-09-29T07:04:53;13.75;;;6.78;;
34836;SDS011;21053;50.848;4.652;2022-09-29T07:07:19;13.85;;;7.15;;
34836;SDS011;21053;50.848;4.652;2022-09-29T07:09:47;13.93;;;7.55;;
34836;SDS011;21053;50.848;4.652;2022-09-29T07:12:13;15.07;;;7.57;;
34836;SDS011;21053;50.848;4.652;2022-09-29T07:14:41;16.63;;;6.90;;
34836;SDS011;21053;50.848;4.652;2022-09-29T07:19:40;18.05;;;7.25;;
34836;SDS011;21053;50.848;4.652;2022-09-29T07:22:09;14.93;;;7.00;;
34836;SDS011;21053;50.848;4.652;2022-09-29T07:24:38;16.90;;;7.38;;
34836;SDS011;21053;50.848;4.652;2022-09-29T07:29:33;20.95;;;8.20;;
34836;SDS011;21053;50.848;4.652;2022-09-29T07:32:05;14.90;;;7.47;;
34836;SDS011;21053;50.848;4.652;2022-09-29T07:34:31;20.33;;;7.45;;
34836;SDS011;21053;50.848;4.652;2022-09-29T07:39:28;23.13;;;7.65;;
34836;SDS011;21053;50.848;4.652;2022-09-29T07:41:55;25.45;;;8.02;;
34836;SDS011;21053;50.848;4.652;2022-09-29T07:44:22;20.42;;;8.43;;
34836;SDS011;21053;50.848;4.652;2022-09-29T07:46:49;15.82;;;6.65;;
34836;SDS011;21053;50.848;4.652;2022-09-29T07:49:21;21.92;;;8.75;;
34836;SDS011;21053;50.848;4.652;2022-09-29T07:51:48;23.67;;;8.20;;
34836;SDS011;21053;50.848;4.652;2022-09-29T07:54:17;15.57;;;8.15;;
34836;SDS011;21053;50.848;4.652;2022-09-29T07:56:44;18.40;;;8.18;;
34836;SDS011;21053;50.848;4.652;2022-09-29T07:59:10;17.70;;;7.72;;
34836;SDS011;21053;50.848;4.652;2022-09-29T08:01:37;20.33;;;8.30;;
34836;SDS011;21053;50.848;4.652;2022-09-29T08:04:03;19.65;;;8.02;;
34836;SDS011;21053;50.848;4.652;2022-09-29T08:06:30;23.23;;;8.23;;
34836;SDS011;21053;50.848;4.652;2022-09-29T08:09:52;16.73;;;8.60;;
34836;SDS011;21053;50.848;4.652;2022-09-29T08:12:17;24.35;;;8.82;;
34836;SDS011;21053;50.848;4.652;2022-09-29T08:14:44;20.85;;;8.25;;
34836;SDS011;21053;50.848;4.652;2022-09-29T08:17:13;20.85;;;8.73;;
34836;SDS011;21053;50.848;4.652;2022-09-29T08:19:39;19.25;;;8.75;;
34836;SDS011;21053;50.848;4.652;2022-09-29T08:22:04;21.95;;;9.35;;
34836;SDS011;21053;50.848;4.652;2022-09-29T08:24:33;26.67;;;9.35;;
34836;SDS011;21053;50.848;4.652;2022-09-29T08:27:02;19.42;;;9.43;;
34836;SDS011;21053;50.848;4.652;2022-09-29T08:29:31;20.85;;;9.77;;
34836;SDS011;21053;50.848;4.652;2022-09-29T08:32:00;21.30;;;9.02;;
34836;SDS011;21053;50.848;4.652;2022-09-29T08:34:29;26.02;;;8.90;;
34836;SDS011;21053;50.848;4.652;2022-09-29T08:36:56;23.02;;;9.38;;
34836;SDS011;21053;50.848;4.652;2022-09-29T08:39:26;21.50;;;9.20;;
34836;SDS011;21053;50.848;4.652;2022-09-29T08:42:04;24.88;;;10.25;;
34836;SDS011;21053;50.848;4.652;2022-09-29T08:44:49;30.83;;;10.50;;
34836;SDS011;21053;50.848;4.652;2022-09-29T08:47:36;25.33;;;8.95;;
34836;SDS011;21053;50.848;4.652;2022-09-29T08:52:59;25.45;;;8.70;;
34836;SDS011;21053;50.848;4.652;2022-09-29T08:55:41;24.58;;;8.82;;
34836;SDS011;21053;50.848;4.652;2022-09-29T08:58:25;25.05;;;9.27;;
34836;SDS011;21053;50.848;4.652;2022-09-29T09:04:03;27.17;;;9.45;;
34836;SDS011;21053;50.848;4.652;2022-09-29T09:19:19;22.92;;;7.75;;
34836;SDS011;21053;50.848;4.652;2022-09-29T09:24:56;17.33;;;6.72;;
34836;SDS011;21053;50.848;4.652;2022-09-29T09:27:41;19.52;;;7.45;;
34836;SDS011;21053;50.848;4.652;2022-09-29T09:32:46;14.20;;;6.30;;
34836;SDS011;21053;50.848;4.652;2022-09-29T09:40:56;14.98;;;5.65;;
34836;SDS011;21053;50.848;4.652;2022-09-29T09:46:19;11.68;;;5.28;;
34836;SDS011;21053;50.848;4.652;2022-09-29T09:48:56;13.23;;;5.07;;
34836;SDS011;21053;50.848;4.652;2022-09-29T09:54:37;12.38;;;4.65;;
34836;SDS011;21053;50.848;4.652;2022-09-29T10:05:00;12.43;;;4.70;;
34836;SDS011;21053;50.848;4.652;2022-09-29T10:07:27;13.48;;;4.93;;
34836;SDS011;21053;50.848;4.652;2022-09-29T10:09:57;9.80;;;4.40;;
34836;SDS011;21053;50.848;4.652;2022-09-29T10:13:35;13.88;;;4.75;;
34836;SDS011;21053;50.848;4.652;2022-09-29T10:16:13;7.25;;;3.75;;
34836;SDS011;21053;50.848;4.652;2022-09-29T10:18:52;13.25;;;4.75;;
34836;SDS011;21053;50.848;4.652;2022-09-29T10:23:55;12.88;;;4.75;;
34836;SDS011;21053;50.848;4.652;2022-09-29T10:32:04;16.13;;;4.43;;
34836;SDS011;21053;50.848;4.652;2022-09-29T10:37:21;9.85;;;4.07;;
34836;SDS011;21053;50.848;4.652;2022-09-29T10:40:02;9.38;;;3.90;;
34836;SDS011;21053;50.848;4.652;2022-09-29T10:42:38;14.90;;;4.40;;
34836;SDS011;21053;50.848;4.652;2022-09-29T10:45:14;12.02;;;4.07;;
34836;SDS011;21053;50.848;4.652;2022-09-29T10:47:46;12.27;;;4.18;;
34836;SDS011;21053;50.848;4.652;2022-09-29T10:50:26;10.50;;;3.92;;
34836;SDS011;21053;50.848;4.652;2022-09-29T10:53:00;9.77;;;4.07;;
34836;SDS011;21053;50.848;4.652;2022-09-29T10:55:30;12.52;;;4.30;;
34836;SDS011;21053;50.848;4.652;2022-09-29T11:01:05;8.05;;;3.33;;
34836;SDS011;21053;50.848;4.652;2022-09-29T11:03:32;9.05;;;3.75;;
34836;SDS011;21053;50.848;4.652;2022-09-29T11:06:03;8.40;;;2.85;;
34836;SDS011;21053;50.848;4.652;2022-09-29T11:11:30;8.77;;;2.30;;
34836;SDS011;21053;50.848;4.652;2022-09-29T11:16:34;7.60;;;3.03;;
34836;SDS011;21053;50.848;4.652;2022-09-29T11:19:26;6.60;;;2.88;;
34836;SDS011;21053;50.848;4.652;2022-09-29T11:33:08;4.28;;;1.70;;
34836;SDS011;21053;50.848;4.652;2022-09-29T11:36:00;6.53;;;2.40;;
34836;SDS011;21053;50.848;4.652;2022-09-29T11:43:45;5.38;;;1.50;;
34836;SDS011;21053;50.848;4.652;2022-09-29T11:46:51;3.00;;;1.60;;
34836;SDS011;21053;50.848;4.652;2022-09-29T11:49:46;3.75;;;1.70;;
34836;SDS011;21053;50.848;4.652;2022-09-29T11:52:32;5.60;;;1.60;;
34836;SDS011;21053;50.848;4.652;2022-09-29T11:58:01;4.93;;;1.58;;
34836;SDS011;21053;50.848;4.652;2022-09-29T12:00:53;4.50;;;1.83;;
34836;SDS011;21053;50.848;4.652;2022-09-29T12:06:37;4.72;;;1.80;;
34836;SDS011;21053;50.848;4.652;2022-09-29T12:18:12;3.47;;;1.20;;
34836;SDS011;21053;50.848;4.652;2022-09-29T12:20:42;3.88;;;1.10;;
34836;SDS011;21053;50.848;4.652;2022-09-29T12:23:13;4.82;;;1.45;;
34836;SDS011;21053;50.848;4.652;2022-09-29T12:26:27;2.33;;;1.08;;
34836;SDS011;21053;50.848;4.652;2022-09-29T12:28:33;2.30;;;1.20;;
34836;SDS011;21053;50.848;4.652;2022-09-29T12:31:07;3.25;;;1.30;;
34836;SDS011;21053;50.848;4.652;2022-09-29T12:33:46;5.47;;;1.30;;
34836;SDS011;21053;50.848;4.652;2022-09-29T12:39:23;5.57;;;1.48;;
34836;SDS011;21053;50.848;4.652;2022-09-29T12:42:31;2.97;;;1.60;;
34836;SDS011;21053;50.848;4.652;2022-09-29T12:51:00;2.40;;;1.13;;
34836;SDS011;21053;50.848;4.652;2022-09-29T12:54:00;4.50;;;1.38;;
34836;SDS011;21053;50.848;4.652;2022-09-29T12:56:40;3.20;;;1.50;;
34836;SDS011;21053;50.848;4.652;2022-09-29T13:04:39;2.55;;;1.23;;
34836;SDS011;21053;50.848;4.652;2022-09-29T13:07:29;3.25;;;1.50;;
34836;SDS011;21053;50.848;4.652;2022-09-29T13:29:35;4.38;;;1.40;;
34836;SDS011;21053;50.848;4.652;2022-09-29T13:32:12;4.18;;;1.77;;
34836;SDS011;21053;50.848;4.652;2022-09-29T13:34:44;6.15;;;1.75;;
34836;SDS011;21053;50.848;4.652;2022-09-29T13:37:16;4.13;;;1.70;;
34836;SDS011;21053;50.848;4.652;2022-09-29T13:40:04;4.65;;;1.73;;
34836;SDS011;21053;50.848;4.652;2022-09-29T13:47:50;3.95;;;1.80;;
34836;SDS011;21053;50.848;4.652;2022-09-29T13:58:36;2.50;;;1.13;;
34836;SDS011;21053;50.848;4.652;2022-09-29T14:09:45;1.52;;;1.00;;
34836;SDS011;21053;50.848;4.652;2022-09-29T14:12:20;4.25;;;1.48;;
34836;SDS011;21053;50.848;4.652;2022-09-29T14:14:56;2.70;;;1.08;;
34836;SDS011;21053;50.848;4.652;2022-09-29T14:20:27;1.77;;;1.08;;
34836;SDS011;21053;50.848;4.652;2022-09-29T14:23:00;8.98;;;1.30;;
34836;SDS011;21053;50.848;4.652;2022-09-29T14:28:12;17.55;;;1.77;;
34836;SDS011;21053;50.848;4.652;2022-09-29T14:30:49;4.50;;;1.20;;
34836;SDS011;21053;50.848;4.652;2022-09-29T14:33:21;3.30;;;1.30;;
34836;SDS011;21053;50.848;4.652;2022-09-29T14:35:53;2.00;;;1.23;;
34836;SDS011;21053;50.848;4.652;2022-09-29T14:38:26;2.88;;;1.30;;
34836;SDS011;21053;50.848;4.652;2022-09-29T14:46:32;2.25;;;1.40;;
34836;SDS011;21053;50.848;4.652;2022-09-29T14:52:35;1.42;;;1.00;;
34836;SDS011;21053;50.848;4.652;2022-09-29T15:01:32;2.75;;;1.25;;
34836;SDS011;21053;50.848;4.652;2022-09-29T15:04:06;1.25;;;1.10;;
34836;SDS011;21053;50.848;4.652;2022-09-29T15:06:48;3.75;;;1.67;;
34836;SDS011;21053;50.848;4.652;2022-09-29T15:09:22;1.75;;;1.20;;
34836;SDS011;21053;50.848;4.652;2022-09-29T15:12:22;3.60;;;1.38;;
34836;SDS011;21053;50.848;4.652;2022-09-29T15:14:55;2.55;;;1.10;;
34836;SDS011;21053;50.848;4.652;2022-09-29T15:17:30;2.95;;;1.30;;
34836;SDS011;21053;50.848;4.652;2022-09-29T15:25:37;3.47;;;1.70;;
34836;SDS011;21053;50.848;4.652;2022-09-29T15:30:58;3.35;;;1.20;;
34836;SDS011;21053;50.848;4.652;2022-09-29T15:33:28;2.97;;;1.30;;
34836;SDS011;21053;50.848;4.652;2022-09-29T15:36:00;3.00;;;1.35;;
34836;SDS011;21053;50.848;4.652;2022-09-29T15:38:33;3.95;;;1.48;;
34836;SDS011;21053;50.848;4.652;2022-09-29T15:44:11;2.78;;;1.30;;
34836;SDS011;21053;50.848;4.652;2022-09-29T15:46:51;3.85;;;1.33;;
34836;SDS011;21053;50.848;4.652;2022-09-29T15:54:22;2.17;;;1.20;;
34836;SDS011;21053;50.848;4.652;2022-09-29T15:56:49;3.65;;;1.20;;
34836;SDS011;21053;50.848;4.652;2022-09-29T15:59:46;2.00;;;1.17;;
34836;SDS011;21053;50.848;4.652;2022-09-29T16:04:55;5.60;;;1.70;;
34836;SDS011;21053;50.848;4.652;2022-09-29T16:07:30;2.55;;;1.40;;
34836;SDS011;21053;50.848;4.652;2022-09-29T16:10:14;4.30;;;1.60;;
34836;SDS011;21053;50.848;4.652;2022-09-29T16:13:01;6.75;;;1.70;;
34836;SDS011;21053;50.848;4.652;2022-09-29T16:15:44;3.70;;;1.35;;
34836;SDS011;21053;50.848;4.652;2022-09-29T16:20:50;3.03;;;1.20;;
34836;SDS011;21053;50.848;4.652;2022-09-29T16:23:20;3.40;;;1.60;;
34836;SDS011;21053;50.848;4.652;2022-09-29T16:31:43;9.48;;;3.08;;
34836;SDS011;21053;50.848;4.652;2022-09-29T16:36:55;4.63;;;1.60;;
34836;SDS011;21053;50.848;4.652;2022-09-29T16:39:30;3.45;;;1.75;;
34836;SDS011;21053;50.848;4.652;2022-09-29T16:42:16;4.47;;;1.92;;
34836;SDS011;21053;50.848;4.652;2022-09-29T16:44:54;6.78;;;2.17;;
34836;SDS011;21053;50.848;4.652;2022-09-29T16:47:25;3.83;;;1.88;;
34836;SDS011;21053;50.848;4.652;2022-09-29T16:49:59;4.47;;;1.48;;
34836;SDS011;21053;50.848;4.652;2022-09-29T16:52:44;3.38;;;1.42;;
34836;SDS011;21053;50.848;4.652;2022-09-29T16:57:57;2.05;;;1.23;;
34836;SDS011;21053;50.848;4.652;2022-09-29T17:00:34;2.72;;;1.38;;
34836;SDS011;21053;50.848;4.652;2022-09-29T17:03:00;5.80;;;1.42;;
34836;SDS011;21053;50.848;4.652;2022-09-29T17:05:29;3.47;;;1.23;;
34836;SDS011;21053;50.848;4.652;2022-09-29T17:08:04;7.82;;;1.58;;
34836;SDS011;21053;50.848;4.652;2022-09-29T17:10:42;4.53;;;1.52;;
34836;SDS011;21053;50.848;4.652;2022-09-29T17:13:13;5.78;;;1.58;;
34836;SDS011;21053;50.848;4.652;2022-09-29T17:15:40;5.75;;;1.52;;
34836;SDS011;21053;50.848;4.652;2022-09-29T17:18:13;8.05;;;1.50;;
34836;SDS011;21053;50.848;4.652;2022-09-29T17:20:40;5.93;;;1.58;;
34836;SDS011;21053;50.848;4.652;2022-09-29T17:25:40;9.02;;;1.77;;
34836;SDS011;21053;50.848;4.652;2022-09-29T17:28:16;4.07;;;1.65;;
34836;SDS011;21053;50.848;4.652;2022-09-29T17:30:49;8.63;;;1.77;;
34836;SDS011;21053;50.848;4.652;2022-09-29T17:33:18;5.35;;;1.83;;
34836;SDS011;21053;50.848;4.652;2022-09-29T17:35:48;13.32;;;1.90;;
34836;SDS011;21053;50.848;4.652;2022-09-29T17:38:18;5.47;;;1.90;;
34836;SDS011;21053;50.848;4.652;2022-09-29T17:43:30;9.30;;;1.83;;
34836;SDS011;21053;50.848;4.652;2022-09-29T17:46:02;2.78;;;1.70;;
34836;SDS011;21053;50.848;4.652;2022-09-29T17:50:58;5.05;;;1.88;;
34836;SDS011;21053;50.848;4.652;2022-09-29T17:58:25;8.25;;;2.00;;
34836;SDS011;21053;50.848;4.652;2022-09-29T18:03:23;8.07;;;4.10;;
34836;SDS011;21053;50.848;4.652;2022-09-29T18:05:50;5.60;;;3.42;;
34836;SDS011;21053;50.848;4.652;2022-09-29T18:08:23;13.55;;;4.03;;
34836;SDS011;21053;50.848;4.652;2022-09-29T18:10:58;10.15;;;4.65;;
34836;SDS011;21053;50.848;4.652;2022-09-29T18:13:28;9.70;;;5.38;;
34836;SDS011;21053;50.848;4.652;2022-09-29T18:15:59;7.72;;;3.63;;
34836;SDS011;21053;50.848;4.652;2022-09-29T18:18:26;12.32;;;4.88;;
34836;SDS011;21053;50.848;4.652;2022-09-29T18:21:01;10.52;;;3.70;;
34836;SDS011;21053;50.848;4.652;2022-09-29T18:26:00;6.95;;;3.83;;
34836;SDS011;21053;50.848;4.652;2022-09-29T18:28:26;7.65;;;3.53;;
34836;SDS011;21053;50.848;4.652;2022-09-29T18:31:14;4.85;;;2.70;;
34836;SDS011;21053;50.848;4.652;2022-09-29T18:33:54;4.68;;;2.70;;
34836;SDS011;21053;50.848;4.652;2022-09-29T18:36:23;14.57;;;2.60;;
34836;SDS011;21053;50.848;4.652;2022-09-29T18:38:49;8.52;;;2.63;;
34836;SDS011;21053;50.848;4.652;2022-09-29T18:41:17;6.82;;;3.80;;
34836;SDS011;21053;50.848;4.652;2022-09-29T18:43:45;11.23;;;3.78;;
34836;SDS011;21053;50.848;4.652;2022-09-29T18:46:14;16.70;;;3.70;;
34836;SDS011;21053;50.848;4.652;2022-09-29T18:48:41;7.40;;;3.92;;
34836;SDS011;21053;50.848;4.652;2022-09-29T18:51:07;13.80;;;4.20;;
34836;SDS011;21053;50.848;4.652;2022-09-29T18:53:37;7.20;;;3.35;;
34836;SDS011;21053;50.848;4.652;2022-09-29T18:58:44;6.07;;;3.03;;
34836;SDS011;21053;50.848;4.652;2022-09-29T19:01:13;8.23;;;2.60;;
34836;SDS011;21053;50.848;4.652;2022-09-29T19:03:43;4.45;;;2.67;;
34836;SDS011;21053;50.848;4.652;2022-09-29T19:06:15;8.27;;;3.50;;
34836;SDS011;21053;50.848;4.652;2022-09-29T19:08:44;15.40;;;4.20;;
34836;SDS011;21053;50.848;4.652;2022-09-29T19:11:21;9.48;;;3.50;;
34836;SDS011;21053;50.848;4.652;2022-09-29T19:13:52;7.25;;;3.20;;
34836;SDS011;21053;50.848;4.652;2022-09-29T19:16:26;7.13;;;3.05;;
34836;SDS011;21053;50.848;4.652;2022-09-29T19:22:35;9.95;;;3.90;;
34836;SDS011;21053;50.848;4.652;2022-09-29T19:25:13;10.32;;;3.55;;
34836;SDS011;21053;50.848;4.652;2022-09-29T19:27:50;18.17;;;4.25;;
34836;SDS011;21053;50.848;4.652;2022-09-29T19:30:18;17.08;;;4.53;;
34836;SDS011;21053;50.848;4.652;2022-09-29T19:32:47;6.50;;;3.63;;
34836;SDS011;21053;50.848;4.652;2022-09-29T19:35:16;14.18;;;4.53;;
34836;SDS011;21053;50.848;4.652;2022-09-29T19:37:44;11.70;;;4.43;;
34836;SDS011;21053;50.848;4.652;2022-09-29T19:42:46;12.18;;;4.63;;
34836;SDS011;21053;50.848;4.652;2022-09-29T19:45:12;25.13;;;5.70;;
34836;SDS011;21053;50.848;4.652;2022-09-29T19:47:38;27.38;;;5.47;;
34836;SDS011;21053;50.848;4.652;2022-09-29T19:50:05;15.98;;;5.07;;
34836;SDS011;21053;50.848;4.652;2022-09-29T19:52:53;22.83;;;5.78;;
34836;SDS011;21053;50.848;4.652;2022-09-29T19:57:51;10.18;;;4.60;;
34836;SDS011;21053;50.848;4.652;2022-09-29T20:00:18;10.45;;;4.63;;
34836;SDS011;21053;50.848;4.652;2022-09-29T20:02:48;15.20;;;4.30;;
34836;SDS011;21053;50.848;4.652;2022-09-29T20:05:16;13.40;;;4.75;;
34836;SDS011;21053;50.848;4.652;2022-09-29T20:07:45;10.88;;;4.47;;
34836;SDS011;21053;50.848;4.652;2022-09-29T20:10:13;11.77;;;4.30;;
34836;SDS011;21053;50.848;4.652;2022-09-29T20:15:14;16.52;;;4.53;;
34836;SDS011;21053;50.848;4.652;2022-09-29T20:17:40;10.88;;;4.25;;
34836;SDS011;21053;50.848;4.652;2022-09-29T20:20:08;9.45;;;4.28;;
34836;SDS011;21053;50.848;4.652;2022-09-29T20:22:36;11.68;;;4.15;;
34836;SDS011;21053;50.848;4.652;2022-09-29T20:25:04;9.20;;;4.47;;
34836;SDS011;21053;50.848;4.652;2022-09-29T20:27:32;8.93;;;4.07;;
34836;SDS011;21053;50.848;4.652;2022-09-29T20:30:02;8.15;;;4.05;;
34836;SDS011;21053;50.848;4.652;2022-09-29T20:35:01;10.63;;;4.45;;
34836;SDS011;21053;50.848;4.652;2022-09-29T20:37:26;10.10;;;3.80;;
34836;SDS011;21053;50.848;4.652;2022-09-29T20:42:22;10.43;;;4.25;;
34836;SDS011;21053;50.848;4.652;2022-09-29T20:44:48;16.05;;;5.10;;
34836;SDS011;21053;50.848;4.652;2022-09-29T20:47:22;7.63;;;4.25;;
34836;SDS011;21053;50.848;4.652;2022-09-29T20:49:52;8.57;;;4.28;;
34836;SDS011;21053;50.848;4.652;2022-09-29T20:52:19;6.85;;;3.85;;
34836;SDS011;21053;50.848;4.652;2022-09-29T20:54:49;18.08;;;4.65;;
34836;SDS011;21053;50.848;4.652;2022-09-29T20:59:44;17.10;;;4.90;;
34836;SDS011;21053;50.848;4.652;2022-09-29T21:04:41;6.85;;;4.18;;
34836;SDS011;21053;50.848;4.652;2022-09-29T21:09:55;11.30;;;3.80;;
34836;SDS011;21053;50.848;4.652;2022-09-29T21:14:50;9.63;;;4.60;;
34836;SDS011;21053;50.848;4.652;2022-09-29T21:17:19;7.50;;;4.40;;
34836;SDS011;21053;50.848;4.652;2022-09-29T21:19:46;13.18;;;5.38;;
34836;SDS011;21053;50.848;4.652;2022-09-29T21:22:15;10.77;;;4.68;;